Skip Navigation Links
NOAA logo - Click to go to the NOAA homepage
NOAA's National Weather Service
Alaska Aviation Weather Unit
  NWS logo - Click to go to the NWS homepage
Left Navbar Graphic     03 AKDT = 11 GMT

   
NOAA is celebrating 200 years of science, service, and stewardship. Visit the NOAA 200th celebration Web site to learn more.
USA.gov is the U.S. Government's official Web portal to all Federal, state and local government Web resources and services.
Facebook
NWS on Facebook

AAWU Home :: Display TAF Add Bookmark
TAF PAOT 290520Z 2906/3006 27004KT P6SM SKC
     FM292000 27004KT P6SM FEW100 SCT200=

METAR PAOT 290553Z 00000KT 10SM CLR M24/M27 A2982= METAR PAOT 290653Z 17003KT 10SM FEW110 M25/M27 A2983= METAR PAOT 290753Z 00000KT 10SM SCT110 M26/M28 A2984= METAR PAOT 290853Z 00000KT 10SM CLR M27/M29 A2985= METAR PAOT 290953Z 00000KT 10SM FEW070 BKN085 BKN110 M27/M28 A2986= METAR PAOT 291053Z 08005KT 10SM SCT110 M27/M29 A2986 RMK AO2 SLP111 T12671289=
 Alaska TAF Map

NOAA's National Weather Service
Alaska Aviation Weather Unit
6930 Sand Lake Road
Anchorage, AK 99502-1845
Disclaimer
Credits
Glossary
Privacy Policy
About Us
Career Opportunities
Contact AAWU Internet Services Site last modified: April, 17th 2012